D/T METAR WX W/SPE G/SPE TEMP DEWP FEEL
31/01/23 08:00 EICK 310800Z 26010KT 9999 SCT030 06/03 Q1027 NOSIG 11.5mph 6°C 3°C 4.7°C
31/01/23 07:30 EICK 310730Z 27008KT 9999 FEW026 07/04 Q1027 NOSIG 9.2mph 7°C 4°C 6.0°C
31/01/23 06:00 EICK 310600Z 30012KT 9999 BKN026 07/06 Q1026 NOSIG 13.8mph 7°C 6°C 6.6°C
31/01/23 05:00 EICK 310500Z 27011G23KT 6000 -RA BKN007 BKN025 09/08 Q1026 TEMPO 4000 -RA 12.7mph 26.5mph 9°C 8°C 9.4°C
31/01/23 03:30 EICK 310330Z 24013KT 7000 -RA BKN005 BKN020 09/08 Q1026 TEMPO 4000 -RA 15.0mph 9°C 8°C 9.4°C
31/01/23 00:00 EICK 310000Z 23010KT 9999 BKN035 08/07 Q1027 NOSIG 11.5mph 8°C 7°C 8.0°C
30/01/23 19:00 EICK 301900Z 23011KT 9999 FEW025 SCT050 06/05 Q1028 NOSIG 12.7mph 6°C 5°C 5.3°C
30/01/23 13:00 EICK 301300Z 22007KT 9999 FEW025 08/02 Q1029 NOSIG 8.1mph 8°C 2°C 6.4°C
30/01/23 09:00 EICK 300900Z 27009KT 9999 BKN025 06/02 Q1029 NOSIG 10.4mph 6°C 2°C 4.4°C
30/01/23 08:30 EICK 300830Z 27006KT 9999 BKN027 06/02 Q1028 NOSIG 6.9mph 6°C 2°C 4.4°C
30/01/23 06:30 EICK 300630Z 29006KT 9999 BKN028 06/02 Q1028 NOSIG 6.9mph 6°C 2°C 4.4°C
09/01/23 06:30 EICK 090630Z 28019G35KT 9999 FEW018CB BKN021 04/01 Q1001 NOSIG 21.9mph 40.3mph 4°C 1°C 2.1°C
09/01/23 06:00 EICK 090600Z 27016KT 9999 FEW018CB BKN030 04/01 Q1001 NOSIG 18.4mph 4°C 1°C 2.1°C
09/01/23 05:30 EICK 090530Z 28020G45KT 9999 -SHRA FEW018CB SCT034 05/02 Q1000 NOSIG -SHRA 23.0mph 51.8mph 5°C 2°C 3.4°C
09/01/23 05:00 EICK 090500Z 27014KT 9999 FEW018CB SCT028 05/02 Q0999 NOSIG 16.1mph 5°C 2°C 3.4°C
09/01/23 04:30 EICK 090430Z 28018KT 9999 FEW018CB SCT036 05/01 Q0999 NOSIG 20.7mph 5°C 1°C 3.1°C
09/01/23 04:00 EICK 090400Z 27017KT 9999 FEW018CB SCT025 05/03 Q0998 NOSIG 19.6mph 5°C 3°C 3.7°C
09/01/23 03:30 EICK 090330Z 27015KT 9999 FEW018CB SCT032 BKN050 05/03 Q0997 NOSIG 17.3mph 5°C 3°C 3.7°C
09/01/23 03:00 EICK 090300Z 27011KT 9999 -SHRA FEW018CB BKN026 05/02 Q0997 NOSIG -SHRA 12.7mph 5°C 2°C 3.4°C
09/01/23 02:00 EICK 090200Z 28014KT 9999 -SHRA FEW018CB BKN030 05/02 Q0995 NOSIG -SHRA 16.1mph 5°C 2°C 3.4°C
09/01/23 01:30 EICK 090130Z 26015KT 9999 FEW018CB SCT040 05/02 Q0994 NOSIG 17.3mph 5°C 2°C 3.4°C
09/01/23 00:30 EICK 090030Z 25012KT 9999 FEW018CB SCT040 04/02 Q0994 NOSIG 13.8mph 4°C 2°C 2.4°C
09/01/23 00:00 EICK 090000Z 26013KT 9999 FEW018CB SCT032 05/02 Q0993 NOSIG 15.0mph 5°C 2°C 3.4°C
08/01/23 23:30 EICK 082330Z 26011KT 9999 FEW018CB SCT040 05/02 Q0993 NOSIG 12.7mph 5°C 2°C 3.4°C
08/01/23 23:00 EICK 082300Z 26012KT 9999 FEW018CB SCT035 05/02 Q0992 NOSIG 13.8mph 5°C 2°C 3.4°C
08/01/23 22:30 EICK 082230Z 26010KT 9999 FEW018CB SCT030 04/02 Q0992 NOSIG 11.5mph 4°C 2°C 2.4°C
08/01/23 22:00 EICK 082200Z 26011KT 9999 FEW018CB SCT025 05/02 Q0991 NOSIG 12.7mph 5°C 2°C 3.4°C
08/01/23 21:30 EICK 082130Z 27011KT 9999 FEW018CB BKN026 05/02 Q0991 NOSIG 12.7mph 5°C 2°C 3.4°C
08/01/23 21:00 EICK 082100Z 27008KT 9999 FEW018CB SCT024 05/03 Q0991 NOSIG 9.2mph 5°C 3°C 3.7°C
08/01/23 19:30 EICK 081930Z 25009KT 9999 FEW018CB SCT040 04/03 Q0989 NOSIG 10.4mph 4°C 3°C 2.7°C
08/01/23 19:00 EICK 081900Z 27013KT 9999 FEW015 FEW017CB SCT100 05/03 Q0988 NOSIG 15.0mph 5°C 3°C 3.7°C
08/01/23 18:30 EICK 081830Z 26014KT 9999 FEW015 FEW017CB SCT022 BKN060 05/04 Q0988 NOSIG 16.1mph 5°C 4°C 4.0°C
08/01/23 18:00 EICK 081800Z 28014KT 9999 -SHRA FEW015 FEW017CB SCT026 05/04 Q0987 NOSIG -SHRA 16.1mph 5°C 4°C 4.0°C
08/01/23 16:30 EICK 081630Z 27013KT 9999 FEW013 SCT017CB BKN100 05/04 Q0985 NOSIG 15.0mph 5°C 4°C 4.0°C
08/01/23 16:00 EICK 081600Z 29012KT 9999 FEW013 SCT015CB BKN180 05/04 Q0984 NOSIG 13.8mph 5°C 4°C 4.0°C
08/01/23 15:30 EICK 081530Z 29012KT 9999 FEW013 FEW015CB SCT031 BKN100 05/04 Q0983 NOSIG 13.8mph 5°C 4°C 4.0°C
08/01/23 15:00 EICK 081500Z 29012KT 9999 VCSH BKN009 SCT014 FEW015CB BKN180 05/04 Q0982 NOSIG VCSH 13.8mph 5°C 4°C 4.0°C
08/01/23 14:30 EICK 081430Z 27009KT 9999 VCSH FEW013 FEW015CB BKN022 05/04 Q0981 NOSIG VCSH 10.4mph 5°C 4°C 4.0°C
08/01/23 14:00 EICK 081400Z 23010KT 7000 VCSH FEW013 SCT015CB BKN180 05/04 Q0981 NOSIG VCSH 11.5mph 5°C 4°C 4.0°C
08/01/23 13:30 EICK 081330Z 20010G25KT 8000 -SHRA BKN013 SCT015CB BKN021 05/05 Q0981 TEMPO SHRA -SHRA 11.5mph 28.8mph 5°C 5°C 4.3°C
08/01/23 13:00 EICK 081300Z 21009KT 9999 VCSH FEW013 FEW015CB SCT120 05/04 Q0982 TEMPO SHRA VCSH 10.4mph 5°C 4°C 4.0°C
08/01/23 12:30 EICK 081230Z 25018G29KT 8000 SHRA FEW009 BKN013CB BKN023 04/03 Q0982 TEMPO BKN022 SHRA 20.7mph 33.4mph 4°C 3°C 2.7°C
08/01/23 12:00 EICK 081200Z 21009KT 180V250 9999 VCSH FEW013 FEW017CB SCT021 06/04 Q0983 TEMPO 4500 SHRA BKN013 VCSH 10.4mph 6°C 4°C 5.0°C
08/01/23 11:30 EICK 081130Z 22011KT 9999 -SHRA FEW014CB BKN016 BKN026 05/03 Q0983 RERA TEMPO 8000 BKN018 -SHRA 12.7mph 5°C 3°C 3.7°C
08/01/23 11:00 EICK 081100Z 23009KT 9999 SHRA FEW015 FEW017CB BKN027 05/03 Q0984 TEMPO SHRA SHRA 10.4mph 5°C 3°C 3.7°C
08/01/23 10:30 EICK 081030Z 23011KT 9999 VCSH FEW015 SCT017CB 03/02 Q0984 TEMPO SHRA VCSH 12.7mph 3°C 2°C 1.4°C
08/01/23 10:00 EICK 081000Z 21010KT 9999 VCSH FEW015 FEW017CB SCT038 03/02 Q0984 TEMPO SHRA VCSH 11.5mph 3°C 2°C 1.4°C
08/01/23 09:30 EICK 080930Z 23011KT 9999 FEW015 FEW018CB 03/02 Q0984 NOSIG 12.7mph 3°C 2°C 1.4°C
08/01/23 09:00 EICK 080900Z 21009KT 190V250 9999 FEW015 FEW018CB SCT038 03/02 Q0984 NOSIG 10.4mph 3°C 2°C 1.4°C
08/01/23 08:30 EICK 080830Z 22010KT 9999 FEW014 FEW018CB SCT041 BKN160 03/02 Q0984 NOSIG 11.5mph 3°C 2°C 1.4°C
08/01/23 08:00 EICK 080800Z 23010KT 9999 FEW013 FEW018CB SCT041 BKN100 02/01 Q0984 NOSIG 11.5mph 2°C 1°C 0.1°C
08/01/23 07:30 EICK 080730Z 26007KT 9999 FEW012 FEW018CB SCT050 BKN100 03/02 Q0984 NOSIG 8.1mph 3°C 2°C 1.4°C
08/01/23 07:00 EICK 080700Z 23009KT 9999 -SHRA FEW018CB SCT050 04/03 Q0985 NOSIG -SHRA 10.4mph 4°C 3°C 2.7°C
08/01/23 06:30 EICK 080630Z 22008KT 9999 FEW016 SCT030 03/03 Q0985 NOSIG 9.2mph 3°C 3°C 1.7°C
08/01/23 06:00 EICK 080600Z 21008KT 9999 FEW018CB SCT030 03/02 Q0985 NOSIG 9.2mph 3°C 2°C 1.4°C
08/01/23 05:30 EICK 080530Z 20009KT 9999 FEW018CB SCT030 BKN060 03/02 Q0985 TEMPO 4000 SHRA BKN010 10.4mph 3°C 2°C 1.4°C
08/01/23 05:00 EICK 080500Z 22011KT 9999 FEW018CB SCT025 BKN080 03/02 Q0986 TEMPO 4000 SHRA BKN010 12.7mph 3°C 2°C 1.4°C
08/01/23 04:30 EICK 080430Z 26016KT 7000 -TSRA SCT017CB BKN060 04/02 Q0986 TEMPO 4000 TSRA BKN010 -TSRA 18.4mph 4°C 2°C 2.4°C
08/01/23 04:00 EICK 080400Z 25016G28KT 9999 -SHRA FEW018CB SCT023 BKN080 06/03 Q0986 TEMPO 4000 SHRA -SHRA 18.4mph 32.2mph 6°C 3°C 4.7°C
08/01/23 03:30 EICK 080330Z 23014KT 9999 FEW018CB BKN030 06/04 Q0986 TEMPO 4000 SHRA 16.1mph 6°C 4°C 5.0°C
08/01/23 02:30 EICK 080230Z 21014KT 9999 FEW025 06/03 Q0987 NOSIG 16.1mph 6°C 3°C 4.7°C
08/01/23 02:00 EICK 080200Z 21009KT 9999 FEW025 05/03 Q0987 NOSIG 10.4mph 5°C 3°C 3.7°C
08/01/23 01:00 EICK 080100Z 23011KT 9999 -SHRA FEW018CB SCT045 06/03 Q0988 NOSIG -SHRA 12.7mph 6°C 3°C 4.7°C
08/01/23 00:30 EICK 080030Z 23011KT 9999 BKN028 06/03 Q0988 NOSIG 12.7mph 6°C 3°C 4.7°C
08/01/23 00:00 EICK 080000Z 23012KT 9999 BKN027 06/04 Q0988 NOSIG 13.8mph 6°C 4°C 5.0°C
07/01/23 23:30 EICK 072330Z 23013KT 9999 FEW018CB BKN027 06/04 Q0988 NOSIG 15.0mph 6°C 4°C 5.0°C
07/01/23 23:00 EICK 072300Z 23010KT 9999 FEW017CB SCT035 06/04 Q0987 NOSIG 11.5mph 6°C 4°C 5.0°C
07/01/23 22:00 EICK 072200Z 22013KT 9999 FEW018CB SCT036 06/05 Q0987 NOSIG 15.0mph 6°C 5°C 5.3°C
07/01/23 21:30 EICK 072130Z 22016KT 9999 FEW018CB SCT034 06/04 Q0987 NOSIG 18.4mph 6°C 4°C 5.0°C
07/01/23 21:00 EICK 072100Z 22016KT 9999 FEW018CB BKN080 06/04 Q0986 NOSIG 18.4mph 6°C 4°C 5.0°C
07/01/23 20:30 EICK 072030Z 23015KT 9999 SCT016CB BKN080 06/05 Q0986 NOSIG 17.3mph 6°C 5°C 5.3°C
07/01/23 20:00 EICK 072000Z 24015KT 7000 -SHRA FEW012 SCT018CB BKN100 07/05 Q0986 NOSIG -SHRA 17.3mph 7°C 5°C 6.3°C
07/01/23 19:30 EICK 071930Z 23021G31KT 9999 FEW018CB SCT070 07/05 Q0985 NOSIG 24.2mph 35.7mph 7°C 5°C 6.3°C
07/01/23 19:00 EICK 071900Z 23019KT 9999 FEW016CB 07/05 Q0985 NOSIG 21.9mph 7°C 5°C 6.3°C
07/01/23 18:30 EICK 071830Z 23019KT 9999 FEW016CB SCT030 07/05 Q0985 NOSIG 21.9mph 7°C 5°C 6.3°C
07/01/23 18:00 EICK 071800Z 22020G32KT 9999 FEW016CB SCT030 08/05 Q0984 NOSIG 23.0mph 36.8mph 8°C 5°C 7.3°C
07/01/23 17:30 EICK 071730Z 22018KT 9999 SCT016CB BKN025 07/06 Q0984 NOSIG 20.7mph 7°C 6°C 6.6°C
07/01/23 17:00 EICK 071700Z 23023G36KT 8000 -SHRA SCT016CB BKN025 07/06 Q0984 NOSIG -SHRA 26.5mph 41.4mph 7°C 6°C 6.6°C
07/01/23 16:00 EICK 071600Z 21022G32KT 9999 -SHRA SCT016CB BKN025 08/06 Q0984 NOSIG -SHRA 25.3mph 36.8mph 8°C 6°C 7.6°C
07/01/23 15:30 EICK 071530Z 21021KT 9999 FEW016CB BKN025 07/05 Q0984 NOSIG 24.2mph 7°C 5°C 6.3°C
07/01/23 15:00 EICK 071500Z 21021KT 9999 FEW016CB BKN025 08/05 Q0984 NOSIG 24.2mph 8°C 5°C 7.3°C
07/01/23 14:30 EICK 071430Z 21022KT 9999 FEW016CB BKN020 08/06 Q0984 NOSIG 25.3mph 8°C 6°C 7.6°C
07/01/23 14:00 EICK 071400Z 22023G35KT 9999 -SHRA SCT016CB BKN020 BKN040 07/05 Q0985 NOSIG -SHRA 26.5mph 40.3mph 7°C 5°C 6.3°C
07/01/23 13:30 EICK 071330Z 21027G37KT 9999 SCT020 BKN040 07/05 Q0985 NOSIG 31.1mph 42.6mph 7°C 5°C 6.3°C
07/01/23 13:00 EICK 071300Z 21022G32KT 9999 SCT020 BKN040 08/03 Q0985 NOSIG 25.3mph 36.8mph 8°C 3°C 6.7°C
07/01/23 12:30 EICK 071230Z 21024G36KT 9999 FEW020 SCT040 08/03 Q0985 NOSIG 27.6mph 41.4mph 8°C 3°C 6.7°C
07/01/23 12:00 EICK 071200Z 21022G34KT 9999 FEW020 SCT040 08/03 Q0986 NOSIG 25.3mph 39.1mph 8°C 3°C 6.7°C
07/01/23 11:30 EICK 071130Z 21021KT 9999 FEW020 08/04 Q0986 NOSIG 24.2mph 8°C 4°C 7.0°C
07/01/23 11:00 EICK 071100Z 21020G31KT 9999 FEW020 07/04 Q0986 NOSIG 23.0mph 35.7mph 7°C 4°C 6.0°C
07/01/23 10:30 EICK 071030Z 21014KT 9999 FEW018 BKN030 07/05 Q0987 NOSIG 16.1mph 7°C 5°C 6.3°C
07/01/23 10:00 EICK 071000Z 21016KT 9999 SCT018 BKN030 06/04 Q0987 NOSIG 18.4mph 6°C 4°C 5.0°C
07/01/23 09:00 EICK 070900Z 19007KT 140V220 9999 SCT012 BKN030 04/04 Q0987 NOSIG 8.1mph 4°C 4°C 3.0°C
07/01/23 08:00 EICK 070800Z 23015G27KT 4000 -RA BKN012 BKN030 04/03 Q0988 BECMG 9999 BKN020 -RA 17.3mph 31.1mph 4°C 3°C 2.7°C
07/01/23 07:30 EICK 070730Z 19013KT 9999 FEW017 BKN030 07/05 Q0987 NOSIG 15.0mph 7°C 5°C 6.3°C
07/01/23 07:00 EICK 070700Z 19013KT 9999 FEW017 BKN030 07/04 Q0988 NOSIG 15.0mph 7°C 4°C 6.0°C
07/01/23 06:30 EICK 070630Z 18008KT 160V220 9999 FEW012 SCT040 BKN220 06/04 Q0989 NOSIG 9.2mph 6°C 4°C 5.0°C